Time,TemperatureF,DewpointF,PressureIn,WindDirection,WindDirectionDegrees,WindSpeedMPH,WindSpeedGustMPH,Humidity,HourlyPrecipIn,Conditions,Clouds,dailyrainin,SolarRadiationWatts/m^2,SoftwareType,DateUTC
2013-06-16 05:33:00,41.0,39.0,29.90,SW,234,0.0,0.0,92,0.00,,,0.00,0.000000,,2013-06-16 12:33:00,
2013-06-16 05:43:00,40.0,38.0,29.90,SW,234,0.0,1.0,92,0.00,,,0.00,0.000000,,2013-06-16 12:43:00,
2013-06-16 05:53:00,40.0,38.0,29.90,SW,234,0.0,1.0,92,0.00,,,0.00,0.000000,,2013-06-16 12:53:00,
2013-06-16 06:01:00,40.0,38.0,29.90,SW,234,0.0,2.0,93,0.00,,,0.00,9.000000,,2013-06-16 13:01:00,
2013-06-16 06:11:00,40.0,38.0,29.90,SW,234,0.0,2.0,93,0.00,,,0.00,9.000000,,2013-06-16 13:11:00,
2013-06-16 06:22:00,40.0,38.0,29.91,SW,234,0.0,1.0,93,0.00,,,0.00,25.000000,,2013-06-16 13:22:00,
2013-06-16 06:34:00,40.0,38.0,29.91,SW,234,0.0,1.0,94,0.00,,,0.00,23.000000,,2013-06-16 13:34:00,
2013-06-16 06:42:00,40.0,38.0,29.92,SW,234,0.0,2.0,94,0.00,,,0.00,104.000000,,2013-06-16 13:42:00,
2013-06-16 06:53:00,40.0,38.0,29.92,SW,234,0.0,2.0,94,0.00,,,0.00,104.000000,,2013-06-16 13:53:00,
2013-06-16 07:01:00,41.0,39.0,29.92,SW,234,1.0,2.0,94,0.00,,,0.00,141.000000,,2013-06-16 14:01:00,
2013-06-16 07:12:00,43.0,41.0,29.92,SW,234,0.0,2.0,92,0.00,,,0.00,181.000000,,2013-06-16 14:12:00,
2013-06-16 07:22:00,43.0,41.0,29.92,SW,234,0.0,2.0,92,0.00,,,0.00,181.000000,,2013-06-16 14:22:00,
2013-06-16 07:34:00,45.0,42.0,29.92,SW,234,0.0,3.0,89,0.00,,,0.00,216.000000,,2013-06-16 14:34:00,
2013-06-16 07:43:00,48.0,44.0,29.92,SSW,208,1.0,5.0,85,0.00,,,0.00,248.000000,,2013-06-16 14:43:00,
2013-06-16 07:52:00,48.0,44.0,29.92,SSW,208,1.0,5.0,85,0.00,,,0.00,248.000000,,2013-06-16 14:52:00,
2013-06-16 08:02:00,50.0,45.0,29.92,SSW,209,0.0,4.0,83,0.00,,,0.00,292.000000,,2013-06-16 15:02:00,
2013-06-16 08:12:00,52.0,46.0,29.91,SSW,211,0.0,4.0,80,0.00,,,0.00,339.000000,,2013-06-16 15:12:00,
2013-06-16 08:22:00,52.0,46.0,29.91,SSW,211,0.0,4.0,80,0.00,,,0.00,339.000000,,2013-06-16 15:22:00,
2013-06-16 08:33:00,53.0,46.0,29.91,SSW,211,0.0,2.0,77,0.00,,,0.00,383.000000,,2013-06-16 15:33:00,
2013-06-16 08:42:00,55.0,47.0,29.91,SSW,211,0.0,3.0,73,0.00,,,0.00,431.000000,,2013-06-16 15:42:00,
2013-06-16 08:52:00,55.0,47.0,29.91,SSW,211,0.0,3.0,73,0.00,,,0.00,431.000000,,2013-06-16 15:52:00,
2013-06-16 09:01:00,57.0,47.0,29.91,WSW,254,0.0,4.0,68,0.00,,,0.00,473.000000,,2013-06-16 16:01:00,
2013-06-16 09:11:00,59.0,46.0,29.91,WSW,254,1.0,4.0,63,0.00,,,0.00,517.000000,,2013-06-16 16:11:00,
2013-06-16 09:22:00,59.0,46.0,29.91,WSW,254,1.0,4.0,63,0.00,,,0.00,517.000000,,2013-06-16 16:22:00,
2013-06-16 09:33:00,60.0,46.0,29.90,SSW,207,0.0,3.0,60,0.00,,,0.00,563.000000,,2013-06-16 16:33:00,
2013-06-16 09:43:00,63.0,45.0,29.90,East,100,3.0,5.0,52,0.00,,,0.00,608.000000,,2013-06-16 16:43:00,
2013-06-16 09:53:00,63.0,45.0,29.90,East,100,3.0,5.0,52,0.00,,,0.00,608.000000,,2013-06-16 16:53:00,
2013-06-16 10:01:00,64.0,44.0,29.90,SE,137,0.0,3.0,48,0.00,,,0.00,663.000000,,2013-06-16 17:01:00,
2013-06-16 10:11:00,64.0,44.0,29.90,SE,137,0.0,3.0,48,0.00,,,0.00,663.000000,,2013-06-16 17:11:00,
2013-06-16 10:22:00,67.0,46.0,29.90,SE,136,0.0,2.0,46,0.00,,,0.00,693.000000,,2013-06-16 17:22:00,
2013-06-16 10:34:00,67.0,42.0,29.89,South,173,1.0,6.0,40,0.00,,,0.00,784.000000,,2013-06-16 17:34:00,
2013-06-16 10:43:00,66.0,43.0,29.90,SSE,150,0.0,5.0,44,0.00,,,0.00,476.000000,,2013-06-16 17:43:00,
2013-06-16 10:53:00,66.0,43.0,29.90,SSE,150,0.0,5.0,44,0.00,,,0.00,476.000000,,2013-06-16 17:53:00,
2013-06-16 11:01:00,66.0,43.0,29.90,WSW,240,4.0,7.0,43,0.00,,,0.00,726.000000,,2013-06-16 18:01:00,
2013-06-16 11:11:00,66.0,43.0,29.90,WSW,240,4.0,7.0,43,0.00,,,0.00,726.000000,,2013-06-16 18:11:00,
2013-06-16 11:22:00,68.0,43.0,29.89,WSW,252,3.0,9.0,41,0.00,,,0.00,749.000000,,2013-06-16 18:22:00,
2013-06-16 11:33:00,69.0,42.0,29.89,South,189,4.0,10.0,38,0.00,,,0.00,740.000000,,2013-06-16 18:33:00,
2013-06-16 11:43:00,69.0,42.0,29.89,West,259,5.0,10.0,37,0.00,,,0.00,962.000000,,2013-06-16 18:43:00,
2013-06-16 11:52:00,69.0,42.0,29.89,West,259,5.0,10.0,37,0.00,,,0.00,962.000000,,2013-06-16 18:52:00,
2013-06-16 12:01:00,71.0,43.0,29.88,South,187,1.0,6.0,37,0.00,,,0.00,889.000000,,2013-06-16 19:01:00,
2013-06-16 12:11:00,71.0,42.0,29.88,WSW,250,6.0,12.0,35,0.00,,,0.00,907.000000,,2013-06-16 19:11:00,
2013-06-16 12:22:00,71.0,42.0,29.88,WSW,250,6.0,12.0,35,0.00,,,0.00,907.000000,,2013-06-16 19:22:00,
2013-06-16 12:33:00,71.0,42.0,29.87,WSW,238,5.0,9.0,35,0.00,,,0.00,963.000000,,2013-06-16 19:33:00,
2013-06-16 12:43:00,71.0,43.0,29.87,SSW,212,6.0,12.0,36,0.00,,,0.00,,,2013-06-16 19:43:00,
2013-06-16 12:53:00,71.0,43.0,29.87,SSW,212,6.0,12.0,36,0.00,,,0.00,,,2013-06-16 19:53:00,
2013-06-16 13:01:00,72.0,40.0,29.87,SSW,193,3.0,7.0,31,0.00,,,0.00,974.000000,,2013-06-16 20:01:00,
2013-06-16 13:11:00,72.0,40.0,29.87,SSW,193,3.0,7.0,31,0.00,,,0.00,974.000000,,2013-06-16 20:11:00,
2013-06-16 13:22:00,74.0,41.0,29.86,SW,222,8.0,14.0,30,0.00,,,0.00,995.000000,,2013-06-16 20:22:00,
2013-06-16 13:33:00,74.0,41.0,29.86,South,187,6.0,14.0,30,0.00,,,0.00,,,2013-06-16 20:33:00,
2013-06-16 13:42:00,72.0,40.0,29.85,SSW,204,2.0,9.0,31,0.00,,,0.00,371.000000,,2013-06-16 20:42:00,
2013-06-16 13:53:00,72.0,40.0,29.85,SSW,204,2.0,9.0,31,0.00,,,0.00,371.000000,,2013-06-16 20:53:00,
2013-06-16 14:01:00,73.0,41.0,29.85,West,281,1.0,11.0,32,0.00,,,0.00,290.000000,,2013-06-16 21:01:00,
2013-06-16 14:11:00,73.0,41.0,29.85,West,281,1.0,11.0,32,0.00,,,0.00,290.000000,,2013-06-16 21:11:00,
2013-06-16 14:21:00,74.0,41.0,29.85,West,277,6.0,11.0,30,0.00,,,0.00,956.000000,,2013-06-16 21:21:00,
2013-06-16 14:32:00,75.0,41.0,29.84,WSW,246,6.0,12.0,30,0.00,,,0.00,932.000000,,2013-06-16 21:32:00,
2013-06-16 14:42:00,76.0,40.0,29.83,West,269,8.0,15.0,27,0.00,,,0.00,937.000000,,2013-06-16 21:42:00,
2013-06-16 14:52:00,76.0,40.0,29.83,West,269,8.0,15.0,27,0.00,,,0.00,937.000000,,2013-06-16 21:52:00,
2013-06-16 15:01:00,75.0,40.0,29.83,SSW,205,5.0,15.0,28,0.00,,,0.00,949.000000,,2013-06-16 22:01:00,
2013-06-16 15:11:00,74.0,40.0,29.83,South,184,6.0,10.0,29,0.00,,,0.00,339.000000,,2013-06-16 22:11:00,
2013-06-16 15:22:00,74.0,40.0,29.83,South,184,6.0,10.0,29,0.00,,,0.00,339.000000,,2013-06-16 22:22:00,
2013-06-16 15:32:00,74.0,41.0,29.84,WNW,291,4.0,15.0,31,0.00,,,0.00,791.000000,,2013-06-16 22:32:00,
2013-06-16 15:41:00,74.0,45.0,29.84,West,262,9.0,22.0,36,0.00,,,0.00,784.000000,,2013-06-16 22:41:00,
2013-06-16 15:52:00,74.0,45.0,29.84,West,262,9.0,22.0,36,0.00,,,0.00,784.000000,,2013-06-16 22:52:00,
2013-06-16 16:01:00,75.0,48.0,29.84,NW,319,7.0,13.0,38,0.00,,,0.00,847.000000,,2013-06-16 23:01:00,
2013-06-16 16:11:00,75.0,48.0,29.85,WNW,296,7.0,16.0,39,0.00,,,0.00,,,2013-06-16 23:11:00,
2013-06-16 16:22:00,75.0,48.0,29.85,WNW,296,7.0,16.0,39,0.00,,,0.00,,,2013-06-16 23:22:00,
2013-06-16 16:32:00,73.0,49.0,29.85,WNW,284,6.0,18.0,42,0.00,,,0.00,807.000000,,2013-06-16 23:32:00,
2013-06-16 16:42:00,72.0,47.0,29.87,West,263,5.0,19.0,41,0.00,,,0.00,276.000000,,2013-06-16 23:42:00,
2013-06-16 16:51:00,72.0,47.0,29.87,West,263,5.0,19.0,41,0.00,,,0.00,276.000000,,2013-06-16 23:51:00,
2013-06-16 17:01:00,71.0,47.0,29.86,WNW,294,6.0,15.0,43,0.00,,,0.00,199.000000,,2013-06-17 00:01:00,
2013-06-16 17:11:00,70.0,50.0,29.86,WSW,250,3.0,10.0,49,0.00,,,0.00,670.000000,,2013-06-17 00:11:00,
2013-06-16 17:22:00,70.0,50.0,29.86,WSW,250,3.0,10.0,49,0.00,,,0.00,670.000000,,2013-06-17 00:22:00,
2013-06-16 17:32:00,69.0,50.0,29.86,SSW,204,3.0,6.0,50,0.00,,,0.00,629.000000,,2013-06-17 00:32:00,
2013-06-16 17:42:00,69.0,48.0,29.87,WNW,292,11.0,17.0,48,0.00,,,0.00,589.000000,,2013-06-17 00:42:00,
2013-06-16 17:52:00,69.0,48.0,29.87,WNW,292,11.0,17.0,48,0.00,,,0.00,589.000000,,2013-06-17 00:52:00,
2013-06-16 18:02:00,69.0,47.0,29.87,WNW,289,6.0,17.0,46,0.00,,,0.00,534.000000,,2013-06-17 01:02:00,
2013-06-16 18:11:00,69.0,46.0,29.88,West,269,5.0,13.0,44,0.00,,,0.00,418.000000,,2013-06-17 01:11:00,
2013-06-16 18:22:00,69.0,46.0,29.88,West,269,5.0,13.0,44,0.00,,,0.00,418.000000,,2013-06-17 01:22:00,
2013-06-16 18:32:00,70.0,47.0,29.88,West,261,6.0,11.0,44,0.00,,,0.00,461.000000,,2013-06-17 01:32:00,
2013-06-16 18:43:00,69.0,47.0,29.89,WNW,301,6.0,12.0,45,0.00,,,0.00,360.000000,,2013-06-17 01:43:00,
2013-06-16 18:53:00,69.0,47.0,29.89,WNW,301,6.0,12.0,45,0.00,,,0.00,360.000000,,2013-06-17 01:53:00,
2013-06-16 19:02:00,68.0,47.0,29.90,NNW,328,4.0,12.0,47,0.00,,,0.00,237.000000,,2013-06-17 02:02:00,
2013-06-16 19:11:00,68.0,46.0,29.90,WNW,282,1.0,8.0,46,0.00,,,0.00,294.000000,,2013-06-17 02:11:00,
2013-06-16 19:22:00,68.0,46.0,29.90,WNW,282,1.0,8.0,46,0.00,,,0.00,294.000000,,2013-06-17 02:22:00,
2013-06-16 19:34:00,67.0,45.0,29.90,WNW,285,6.0,11.0,45,0.00,,,0.00,104.000000,,2013-06-17 02:34:00,
2013-06-16 19:43:00,66.0,46.0,29.91,West,279,4.0,11.0,48,0.00,,,0.00,214.000000,,2013-06-17 02:43:00,
2013-06-16 19:53:00,66.0,46.0,29.91,West,279,4.0,11.0,48,0.00,,,0.00,214.000000,,2013-06-17 02:53:00,
2013-06-16 20:02:00,65.0,45.0,29.90,WSW,254,5.0,13.0,49,0.00,,,0.00,151.000000,,2013-06-17 03:02:00,
2013-06-16 20:11:00,65.0,45.0,29.90,WSW,254,5.0,13.0,49,0.00,,,0.00,151.000000,,2013-06-17 03:11:00,
2013-06-16 20:22:00,64.0,45.0,29.91,WNW,284,3.0,12.0,51,0.00,,,0.00,111.000000,,2013-06-17 03:22:00,
2013-06-16 20:33:00,63.0,45.0,29.91,West,274,3.0,10.0,52,0.00,,,0.00,56.000000,,2013-06-17 03:33:00,
2013-06-16 20:44:00,62.0,45.0,29.92,West,273,3.0,8.0,53,0.00,,,0.00,21.000000,,2013-06-17 03:44:00,
2013-06-16 20:53:00,62.0,45.0,29.92,West,273,3.0,8.0,53,0.00,,,0.00,21.000000,,2013-06-17 03:53:00,
2013-06-16 21:02:00,61.0,44.0,29.92,West,261,6.0,12.0,54,0.00,,,0.00,7.000000,,2013-06-17 04:02:00,
2013-06-16 21:12:00,60.0,44.0,29.92,WNW,303,1.0,11.0,55,0.00,,,0.00,0.000000,,2013-06-17 04:12:00,
2013-06-16 21:22:00,60.0,44.0,29.92,WNW,303,1.0,11.0,55,0.00,,,0.00,0.000000,,2013-06-17 04:22:00,
2013-06-16 21:33:00,59.0,44.0,29.93,WNW,289,0.0,3.0,57,0.00,,,0.00,0.000000,,2013-06-17 04:33:00,
2013-06-16 21:42:00,59.0,45.0,29.94,SSE,162,1.0,3.0,59,0.00,,,0.00,0.000000,,2013-06-17 04:42:00,
2013-06-16 21:53:00,59.0,45.0,29.94,SSE,162,1.0,3.0,59,0.00,,,0.00,0.000000,,2013-06-17 04:53:00,
2013-06-16 22:02:00,57.0,44.0,29.95,South,173,2.0,3.0,62,0.00,,,0.00,0.000000,,2013-06-17 05:02:00,
2013-06-16 22:11:00,57.0,44.0,29.95,South,173,2.0,3.0,62,0.00,,,0.00,0.000000,,2013-06-17 05:11:00,
2013-06-16 22:22:00,57.0,44.0,29.96,South,173,0.0,4.0,62,0.00,,,0.00,0.000000,,2013-06-17 05:22:00,
2013-06-16 22:33:00,56.0,45.0,29.96,South,173,0.0,3.0,66,0.00,,,0.00,0.000000,,2013-06-17 05:33:00,
2013-06-16 22:44:00,55.0,44.0,29.96,South,173,0.0,1.0,67,0.00,,,0.00,0.000000,,2013-06-17 05:44:00,
2013-06-16 22:53:00,55.0,44.0,29.96,South,173,0.0,1.0,67,0.00,,,0.00,0.000000,,2013-06-17 05:53:00,
2013-06-16 23:02:00,55.0,45.0,29.96,South,173,0.0,0.0,68,0.00,,,0.00,0.000000,,2013-06-17 06:02:00,
2013-06-16 23:12:00,55.0,45.0,29.96,South,173,0.0,0.0,68,0.00,,,0.00,0.000000,,2013-06-17 06:12:00,
2013-06-16 23:22:00,53.0,44.0,29.96,West,271,1.0,4.0,71,0.00,,,0.00,0.000000,,2013-06-17 06:22:00,
2013-06-16 23:32:00,52.0,44.0,29.96,West,273,0.0,3.0,73,0.00,,,0.00,0.000000,,2013-06-17 06:32:00,
2013-06-16 23:43:00,51.0,43.0,29.97,West,273,0.0,2.0,73,0.00,,,0.00,0.000000,,2013-06-17 06:43:00,
2013-06-16 23:53:00,51.0,43.0,29.97,West,273,0.0,2.0,73,0.00,,,0.00,0.000000,,2013-06-17 06:53:00,